createdAt,value
2018-08-17T00:01:13.870Z,72.58
2018-08-17T00:03:43.046Z,72.36
2018-08-17T00:06:12.358Z,71.99
2018-08-17T00:08:41.693Z,72.45
2018-08-17T00:11:10.911Z,72.30
2018-08-17T00:13:40.150Z,71.90
2018-08-17T00:16:09.246Z,73.41
2018-08-17T00:18:38.346Z,73.61
2018-08-17T00:21:07.870Z,74.63
2018-08-17T00:23:36.978Z,74.99
2018-08-17T00:26:06.454Z,75.54
2018-08-17T00:28:35.578Z,76.14
2018-08-17T00:31:04.674Z,76.80
2018-08-17T00:33:33.770Z,76.90
2018-08-17T00:36:02.907Z,76.53
2018-08-17T00:38:32.739Z,77.35
2018-08-17T00:41:01.830Z,78.21
2018-08-17T00:43:30.931Z,78.41
2018-08-17T00:46:00.042Z,78.69
2018-08-17T00:48:29.154Z,78.76
2018-08-17T00:50:58.238Z,79.34
2018-08-17T00:53:28.040Z,79.60
2018-08-17T00:55:57.435Z,78.85
2018-08-17T00:58:26.565Z,79.16
2018-08-17T01:00:55.721Z,79.67
2018-08-17T01:03:24.822Z,79.65
2018-08-17T01:05:54.643Z,80.25
2018-08-17T01:08:23.782Z,80.60
2018-08-17T01:10:52.915Z,80.34
2018-08-17T01:13:22.022Z,81.05
2018-08-17T01:15:51.169Z,80.22
2018-08-17T01:18:20.302Z,80.43
2018-08-17T01:20:49.406Z,81.02
2018-08-17T01:23:18.575Z,80.46
2018-08-17T01:25:47.686Z,80.23
2018-08-17T01:28:16.792Z,81.36
2018-08-17T01:30:45.939Z,82.38
2018-08-17T01:33:15.082Z,82.45
2018-08-17T01:35:44.203Z,82.31
2018-08-17T01:38:13.382Z,82.85
2018-08-17T01:40:42.462Z,82.12
2018-08-17T01:43:11.566Z,83.15
2018-08-17T01:45:40.730Z,82.70
2018-08-17T01:48:09.846Z,82.70
2018-08-17T01:50:38.946Z,83.20
2018-08-17T01:53:08.102Z,83.25
2018-08-17T01:55:37.362Z,83.60
2018-08-17T01:58:06.723Z,83.23
2018-08-17T02:00:36.202Z,83.39
2018-08-17T02:03:05.299Z,84.88
2018-08-17T02:05:34.389Z,85.40
2018-08-17T02:08:03.522Z,84.91
2018-08-17T02:10:32.779Z,84.96
2018-08-17T02:13:01.871Z,84.92
2018-08-17T02:15:30.997Z,84.70
2018-08-17T02:18:00.090Z,84.58
2018-08-17T02:20:29.206Z,85.44
2018-08-17T02:22:58.316Z,86.32
2018-08-17T02:25:28.162Z,87.04
2018-08-17T02:27:57.305Z,86.49
2018-08-17T02:30:26.455Z,86.72
2018-08-17T02:32:57.055Z,85.98
2018-08-17T02:35:26.590Z,85.58
2018-08-17T02:37:56.236Z,85.70
2018-08-17T02:40:25.603Z,85.27
2018-08-17T02:42:54.894Z,85.64
2018-08-17T02:45:24.710Z,85.44
2018-08-17T02:47:54.986Z,85.65
2018-08-17T02:50:24.186Z,85.81
2018-08-17T02:52:53.310Z,86.47
2018-08-17T02:55:22.401Z,86.73
2018-08-17T02:57:51.785Z,86.13
2018-08-17T03:00:20.889Z,86.58
2018-08-17T03:02:49.986Z,87.62
2018-08-17T03:05:19.111Z,87.18
2018-08-17T03:07:48.233Z,86.96
2018-08-17T03:10:17.333Z,88.00
2018-08-17T03:12:47.149Z,88.39
2018-08-17T03:15:16.274Z,88.35
2018-08-17T03:17:45.401Z,88.96
2018-08-17T03:20:14.711Z,88.82
2018-08-17T03:22:44.248Z,88.92
2018-08-17T03:25:13.486Z,89.53
2018-08-17T03:27:43.173Z,89.45
2018-08-17T03:30:12.289Z,89.63
2018-08-17T03:32:41.461Z,89.52
2018-08-17T03:35:10.773Z,89.53
2018-08-17T03:37:39.881Z,88.98
2018-08-17T03:40:09.123Z,88.62
2018-08-17T03:42:38.255Z,88.44
2018-08-17T03:45:07.522Z,89.70
2018-08-17T03:47:36.654Z,89.05
2018-08-17T03:50:06.777Z,88.97
2018-08-17T03:52:35.954Z,87.97
2018-08-17T03:55:05.169Z,87.28
2018-08-17T03:57:34.341Z,87.66
2018-08-17T04:00:03.518Z,88.29
2018-08-17T04:02:32.702Z,88.31
2018-08-17T04:05:01.858Z,87.72
2018-08-17T04:07:31.786Z,87.89
2018-08-17T04:10:00.906Z,86.89
2018-08-17T04:12:30.051Z,86.98
2018-08-17T04:14:59.321Z,88.27
2018-08-17T04:17:28.610Z,88.07
2018-08-17T04:19:58.211Z,89.06
2018-08-17T04:22:27.461Z,88.88
2018-08-17T04:24:56.767Z,89.24
2018-08-17T04:27:26.050Z,88.55
2018-08-17T04:29:55.557Z,88.08
2018-08-17T04:32:25.469Z,87.64
2018-08-17T04:34:55.297Z,87.01
2018-08-17T04:37:24.527Z,87.05
2018-08-17T04:39:53.738Z,87.13
2018-08-17T04:42:22.957Z,86.86
2018-08-17T04:44:52.770Z,85.66
2018-08-17T04:47:22.467Z,86.80
2018-08-17T04:49:52.167Z,88.03
2018-08-17T04:52:21.366Z,88.29
2018-08-17T04:54:50.497Z,89.12
2018-08-17T04:57:19.606Z,88.66
2018-08-17T04:59:48.979Z,88.45
2018-08-17T05:02:18.098Z,88.69
2018-08-17T05:04:47.921Z,87.22
2018-08-17T05:07:17.366Z,85.81
2018-08-17T05:09:46.521Z,84.93
2018-08-17T05:12:15.676Z,83.79
2018-08-17T05:14:44.942Z,82.01
2018-08-17T05:17:14.149Z,80.60
2018-08-17T05:19:43.467Z,79.04
2018-08-17T05:22:12.681Z,77.82
2018-08-17T05:24:43.469Z,78.13
2018-08-17T05:27:13.201Z,77.62
2018-08-17T05:29:42.537Z,78.01
2018-08-17T05:32:11.640Z,76.29
2018-08-17T05:34:40.865Z,74.58
2018-08-17T05:37:09.975Z,70.20
2018-08-17T05:39:39.097Z,65.94
2018-08-17T05:42:08.321Z,61.93
2018-08-17T05:44:37.481Z,60.64
2018-08-17T05:47:07.066Z,58.26
2018-08-17T05:49:37.086Z,55.67
2018-08-17T05:52:06.189Z,54.99
2018-08-17T05:54:35.484Z,53.11
2018-08-17T05:57:05.144Z,53.28
2018-08-17T05:59:35.038Z,53.24
2018-08-17T06:02:04.175Z,53.53
2018-08-17T06:04:33.298Z,52.08
2018-08-17T06:07:02.481Z,50.88
2018-08-17T06:09:31.602Z,48.98
2018-08-17T06:12:01.329Z,46.58
2018-08-17T06:14:31.042Z,44.86
2018-08-17T06:17:00.222Z,42.63
2018-08-17T06:19:29.682Z,42.14
2018-08-17T06:21:59.105Z,45.16
2018-08-17T06:24:28.248Z,50.04
2018-08-17T06:26:57.431Z,50.90
2018-08-17T06:29:26.530Z,51.17
2018-08-17T06:31:55.734Z,52.28
2018-08-17T06:34:25.010Z,54.18
2018-08-17T06:36:54.166Z,57.96
2018-08-17T06:39:23.284Z,57.83
2018-08-17T06:41:52.373Z,58.05
2018-08-17T06:44:21.714Z,58.11
2018-08-17T06:46:51.497Z,57.32
2018-08-17T06:49:20.598Z,55.97
2018-08-17T06:51:49.747Z,52.18
2018-08-17T06:54:18.865Z,48.66
2018-08-17T06:56:48.215Z,47.42
2018-08-17T06:59:18.109Z,43.75
2018-08-17T07:01:47.238Z,43.95
2018-08-17T07:04:16.618Z,44.17
2018-08-17T07:06:46.162Z,40.57
2018-08-17T07:09:16.429Z,39.27
2018-08-17T07:11:46.312Z,38.71
2018-08-17T07:14:15.450Z,36.53
2018-08-17T07:16:44.671Z,36.30
2018-08-17T07:19:14.098Z,35.51
2018-08-17T07:21:43.564Z,35.65
2018-08-17T07:24:13.127Z,36.31
2018-08-17T07:26:42.261Z,34.96
2018-08-17T07:29:11.433Z,34.02
2018-08-17T07:31:40.557Z,34.17
2018-08-17T07:34:09.702Z,35.39
2018-08-17T07:36:38.814Z,33.99
2018-08-17T07:39:08.916Z,34.09
2018-08-17T07:41:38.614Z,33.34
2018-08-17T07:44:07.688Z,32.77
2018-08-17T07:46:36.862Z,32.74
2018-08-17T07:49:06.045Z,32.17
2018-08-17T07:51:35.174Z,30.61
2018-08-17T07:54:04.281Z,30.43
2018-08-17T07:56:33.427Z,32.56
2018-08-17T07:59:02.653Z,31.21
2018-08-17T08:01:32.199Z,31.92
2018-08-17T08:04:01.720Z,31.71
2018-08-17T08:06:30.843Z,32.15
2018-08-17T08:08:59.942Z,31.77
2018-08-17T08:11:30.854Z,29.09
2018-08-17T08:14:01.078Z,28.95
2018-08-17T08:16:30.771Z,29.70
2018-08-17T08:19:00.203Z,31.03
2018-08-17T08:21:29.588Z,33.88
2018-08-17T08:23:58.729Z,34.12
2018-08-17T08:26:28.330Z,35.63
2018-08-17T08:28:57.489Z,36.00
2018-08-17T08:31:27.706Z,35.19
2018-08-17T08:33:56.882Z,33.33
2018-08-17T08:36:26.889Z,29.32
2018-08-17T08:38:56.003Z,27.56
2018-08-17T08:41:25.888Z,25.27
2018-08-17T08:43:55.062Z,25.54
2018-08-17T08:46:24.194Z,24.67
2018-08-17T08:48:54.074Z,24.20
2018-08-17T08:51:23.169Z,21.72
2018-08-17T08:53:52.925Z,20.25
2018-08-17T08:56:22.330Z,19.93
2018-08-17T08:58:51.422Z,18.83
2018-08-17T09:01:20.531Z,19.29
2018-08-17T09:03:49.659Z,19.72
2018-08-17T09:06:18.753Z,22.57
2018-08-17T09:08:47.926Z,21.58
2018-08-17T09:11:17.075Z,22.79
2018-08-17T09:13:46.244Z,18.77
2018-08-17T09:16:15.366Z,17.97
2018-08-17T09:18:45.245Z,18.57
2018-08-17T09:21:14.362Z,17.99
2018-08-17T09:23:43.991Z,17.95
2018-08-17T09:26:13.130Z,17.87
2018-08-17T09:28:42.558Z,18.03
2018-08-17T09:31:11.729Z,17.33
2018-08-17T09:33:40.829Z,17.63
2018-08-17T09:36:10.114Z,16.67
2018-08-17T09:38:39.796Z,16.10
2018-08-17T09:41:09.065Z,18.92
2018-08-17T09:43:39.110Z,20.14
2018-08-17T09:46:08.446Z,23.17
2018-08-17T09:48:38.349Z,22.95
2018-08-17T09:51:07.602Z,21.67
2018-08-17T09:53:37.361Z,20.44
2018-08-17T09:56:07.465Z,22.16
2018-08-17T09:58:36.605Z,23.23
2018-08-17T10:01:11.061Z,24.23
2018-08-17T10:03:43.611Z,22.46
2018-08-17T10:06:17.829Z,20.60
2018-08-17T10:08:52.862Z,19.11
2018-08-17T10:11:21.994Z,20.32
2018-08-17T10:13:51.474Z,24.21
2018-08-17T10:16:20.619Z,23.79
2018-08-17T10:18:49.729Z,23.93
2018-08-17T10:21:19.139Z,24.73
2018-08-17T10:23:48.889Z,24.76
2018-08-17T10:26:18.019Z,24.48
2018-08-17T10:28:47.169Z,23.92
2018-08-17T10:31:18.926Z,22.93
2018-08-17T10:33:48.715Z,21.12
2018-08-17T10:36:18.104Z,20.29
2018-08-17T10:38:47.333Z,21.16
2018-08-17T10:41:16.502Z,20.22
2018-08-17T10:43:47.185Z,20.29
2018-08-17T10:46:16.390Z,19.10
2018-08-17T10:48:46.381Z,19.10
2018-08-17T10:51:15.464Z,18.36
2018-08-17T10:53:47.359Z,18.73
2018-08-17T10:56:16.597Z,19.08
2018-08-17T10:58:45.731Z,19.58
2018-08-17T11:01:15.385Z,19.04
2018-08-17T11:03:44.991Z,21.23
2018-08-17T11:06:14.805Z,24.34
2018-08-17T11:08:43.975Z,23.45
2018-08-17T11:11:13.506Z,21.98
2018-08-17T11:13:42.746Z,25.70
2018-08-17T11:16:11.859Z,29.91
2018-08-17T11:18:41.089Z,31.33
2018-08-17T11:21:10.791Z,32.80
2018-08-17T11:23:40.086Z,31.90
2018-08-17T11:26:09.289Z,31.83
2018-08-17T11:28:38.398Z,32.67
2018-08-17T11:31:07.511Z,31.60
2018-08-17T11:33:36.670Z,32.04
2018-08-17T11:36:05.822Z,32.45
2018-08-17T11:38:35.337Z,32.10
2018-08-17T11:41:04.833Z,30.64
2018-08-17T11:43:33.956Z,29.90
2018-08-17T11:46:03.074Z,28.86
2018-08-17T11:48:35.162Z,29.80
2018-08-17T11:51:04.580Z,29.82
2018-08-17T11:53:34.505Z,29.94
2018-08-17T11:56:03.605Z,31.02
2018-08-17T11:58:33.516Z,30.66
2018-08-17T12:01:07.296Z,30.95
2018-08-17T12:03:36.417Z,31.07
2018-08-17T12:06:05.558Z,30.74
2018-08-17T12:08:35.777Z,31.11
2018-08-17T12:11:07.149Z,31.49
2018-08-17T12:13:39.936Z,30.91
2018-08-17T12:16:12.454Z,30.25
2018-08-17T12:18:41.732Z,31.20
2018-08-17T12:21:11.026Z,30.89
2018-08-17T12:23:40.305Z,31.37
2018-08-17T12:26:09.546Z,30.77
2018-08-17T12:28:38.701Z,30.79
2018-08-17T12:31:07.884Z,31.29
2018-08-17T12:33:37.089Z,29.42
2018-08-17T12:36:06.293Z,28.26
2018-08-17T12:38:35.431Z,25.41
2018-08-17T12:41:04.630Z,25.12
2018-08-17T12:43:35.633Z,25.44
2018-08-17T12:46:05.429Z,26.95
2018-08-17T12:48:35.759Z,24.58
2018-08-17T12:51:07.042Z,26.97
2018-08-17T12:53:36.866Z,26.76
2018-08-17T12:56:06.037Z,24.87
2018-08-17T12:58:35.162Z,22.16
2018-08-17T13:01:04.422Z,25.21
2018-08-17T13:03:33.583Z,26.66
2018-08-17T13:06:02.719Z,27.14
2018-08-17T13:08:32.406Z,25.61
2018-08-17T13:11:02.162Z,23.93
2018-08-17T13:13:31.273Z,26.31
2018-08-17T13:16:05.614Z,26.21
2018-08-17T13:18:37.074Z,24.87
2018-08-17T13:21:08.027Z,25.68
2018-08-17T13:23:37.146Z,25.20
2018-08-17T13:26:06.330Z,25.66
2018-08-17T13:28:36.122Z,26.79
2018-08-17T13:31:05.274Z,26.90
2018-08-17T13:33:34.411Z,27.46
2018-08-17T13:36:04.347Z,28.62
2018-08-17T13:38:33.918Z,28.52
2018-08-17T13:41:03.037Z,29.61
2018-08-17T13:43:32.178Z,29.86
2018-08-17T13:46:01.670Z,29.47
2018-08-17T13:48:30.890Z,28.37
2018-08-17T13:51:00.263Z,28.12
2018-08-17T13:53:29.865Z,28.05
2018-08-17T13:55:59.817Z,28.52
2018-08-17T13:58:30.121Z,27.75
2018-08-17T14:00:59.548Z,27.92
2018-08-17T14:03:28.965Z,26.88
2018-08-17T14:05:58.226Z,27.05
2018-08-17T14:08:27.734Z,25.19
2018-08-17T14:10:57.698Z,23.73
2018-08-17T14:13:27.883Z,21.26
2018-08-17T14:15:57.004Z,21.27
2018-08-17T14:18:26.566Z,18.66
2018-08-17T14:20:55.717Z,17.41
2018-08-17T14:23:24.837Z,18.04
2018-08-17T14:25:53.954Z,19.42
2018-08-17T14:28:23.098Z,20.89
2018-08-17T14:30:52.253Z,24.47
2018-08-17T14:33:21.406Z,25.37
2018-08-17T14:35:50.521Z,25.30
2018-08-17T14:38:30.916Z,25.65
2018-08-17T14:41:00.358Z,25.73
2018-08-17T14:43:29.483Z,25.30
2018-08-17T14:45:58.625Z,25.89
2018-08-17T14:48:27.785Z,29.57
2018-08-17T14:50:57.514Z,33.30
2018-08-17T14:53:27.129Z,34.96
2018-08-17T14:55:56.401Z,35.54
2018-08-17T14:58:25.626Z,36.62
2018-08-17T15:00:55.047Z,35.79
2018-08-17T15:03:24.153Z,35.93
2018-08-17T15:05:53.269Z,35.84
2018-08-17T15:08:23.006Z,34.13
2018-08-17T15:10:52.192Z,36.62
2018-08-17T15:13:21.349Z,36.86
2018-08-17T15:15:50.480Z,37.73
2018-08-17T15:18:19.597Z,36.11
2018-08-17T15:20:48.732Z,37.00
2018-08-17T15:23:17.858Z,37.42
2018-08-17T15:25:47.015Z,37.55
2018-08-17T15:28:16.110Z,38.12
2018-08-17T15:30:45.466Z,37.41
2018-08-17T15:33:14.569Z,36.91
2018-08-17T15:35:43.674Z,36.56
2018-08-17T15:38:12.822Z,36.80
2018-08-17T15:40:42.019Z,35.87
2018-08-17T15:43:17.233Z,35.62
2018-08-17T15:45:47.738Z,35.96
2018-08-17T15:48:17.531Z,35.10
2018-08-17T15:50:47.346Z,34.98
2018-08-17T15:53:16.465Z,34.27
2018-08-17T15:55:45.628Z,35.26
2018-08-17T15:58:14.834Z,35.11
2018-08-17T16:00:44.158Z,37.38
2018-08-17T16:03:13.381Z,39.83
2018-08-17T16:05:42.946Z,43.24
2018-08-17T16:08:12.083Z,44.43
2018-08-17T16:10:41.237Z,46.39
2018-08-17T16:13:10.794Z,48.13
2018-08-17T16:15:41.247Z,48.52
2018-08-17T16:18:10.975Z,47.71
2018-08-17T16:20:40.118Z,47.29
2018-08-17T16:23:09.242Z,47.52
2018-08-17T16:25:38.371Z,46.63
2018-08-17T16:28:07.548Z,46.30
2018-08-17T16:30:37.018Z,46.04
2018-08-17T16:33:06.133Z,45.92
2018-08-17T16:35:35.554Z,45.81
2018-08-17T16:38:04.838Z,46.39
2018-08-17T16:40:38.313Z,46.10
2018-08-17T16:43:07.462Z,46.03
2018-08-17T16:45:37.190Z,45.37
2018-08-17T16:48:07.165Z,45.66
2018-08-17T16:50:36.305Z,45.70
2018-08-17T16:53:05.435Z,46.44
2018-08-17T16:55:35.041Z,46.24
2018-08-17T16:58:04.318Z,46.60
2018-08-17T17:00:33.119Z,47.63
2018-08-17T17:03:02.202Z,47.03
2018-08-17T17:05:31.306Z,46.70
2018-08-17T17:08:00.440Z,47.49
2018-08-17T17:10:31.158Z,46.42
2018-08-17T17:13:00.301Z,46.55
2018-08-17T17:15:29.458Z,46.78
2018-08-17T17:18:05.864Z,47.82
2018-08-17T17:20:36.521Z,47.63
2018-08-17T17:23:07.293Z,47.97
2018-08-17T17:25:36.981Z,48.70
2018-08-17T17:28:06.877Z,49.38
2018-08-17T17:30:43.934Z,49.13
2018-08-17T17:33:13.125Z,50.37
2018-08-17T17:35:43.054Z,50.37
2018-08-17T17:38:12.766Z,50.03
2018-08-17T17:40:42.274Z,50.99
2018-08-17T17:43:11.502Z,51.30
2018-08-17T17:45:40.997Z,51.29
2018-08-17T17:48:10.701Z,52.77
2018-08-17T17:50:39.907Z,52.61
2018-08-17T17:53:09.033Z,52.86
2018-08-17T17:55:44.171Z,54.00
2018-08-17T17:58:13.585Z,54.90
2018-08-17T18:00:51.266Z,54.54
2018-08-17T18:03:20.906Z,55.05
2018-08-17T18:05:50.053Z,56.81
2018-08-17T18:08:19.667Z,56.70
2018-08-17T18:10:50.093Z,57.02
2018-08-17T18:13:19.674Z,56.59
2018-08-17T18:15:48.839Z,56.60
2018-08-17T18:18:17.970Z,56.40
2018-08-17T18:20:47.104Z,56.14
2018-08-17T18:23:16.266Z,56.29
2018-08-17T18:25:45.470Z,57.38
2018-08-17T18:28:15.200Z,57.58
2018-08-17T18:30:44.396Z,57.45
2018-08-17T18:33:13.510Z,58.22
2018-08-17T18:35:42.662Z,58.04
2018-08-17T18:38:11.776Z,59.14
2018-08-17T18:40:40.877Z,58.71
2018-08-17T18:43:10.465Z,58.28
2018-08-17T18:45:39.626Z,59.20
2018-08-17T18:48:08.801Z,59.62
2018-08-17T18:50:37.931Z,60.14
2018-08-17T18:53:07.041Z,60.40
2018-08-17T18:55:36.177Z,61.22
2018-08-17T18:58:05.329Z,61.25
2018-08-17T19:00:35.195Z,61.83
2018-08-17T19:03:04.498Z,62.18
2018-08-17T19:05:33.837Z,63.24
2018-08-17T19:08:02.961Z,60.96
2018-08-17T19:10:32.242Z,59.90
2018-08-17T19:13:01.242Z,59.11
2018-08-17T19:15:34.219Z,58.36
2018-08-17T19:18:03.370Z,57.86
2018-08-17T19:20:32.513Z,57.42
2018-08-17T19:23:01.687Z,56.93
2018-08-17T19:25:31.198Z,56.73
2018-08-17T19:28:00.325Z,56.46
2018-08-17T19:30:33.355Z,56.49
2018-08-17T19:33:08.654Z,56.22
2018-08-17T19:35:40.635Z,56.45
2018-08-17T19:38:09.929Z,55.79
2018-08-17T19:40:39.200Z,56.56
2018-08-17T19:43:08.314Z,56.76
2018-08-17T19:45:37.529Z,56.47
2018-08-17T19:48:06.705Z,56.38
2018-08-17T19:50:35.817Z,56.21
2018-08-17T19:53:04.976Z,57.06
2018-08-17T19:55:34.147Z,56.67
2018-08-17T19:58:03.284Z,56.09
2018-08-17T20:00:32.422Z,56.20
2018-08-17T20:03:01.562Z,56.40
2018-08-17T20:05:30.729Z,56.01
2018-08-17T20:08:00.484Z,56.25
2018-08-17T20:10:29.601Z,56.41
2018-08-17T20:12:58.875Z,56.54
2018-08-17T20:15:27.997Z,56.94
2018-08-17T20:17:57.126Z,57.64
2018-08-17T20:20:26.257Z,57.52
2018-08-17T20:23:00.535Z,57.13
2018-08-17T20:25:29.710Z,57.45
2018-08-17T20:27:59.077Z,58.27
2018-08-17T20:30:28.173Z,58.41
2018-08-17T20:32:57.362Z,58.49
2018-08-17T20:35:26.485Z,58.57
2018-08-17T20:37:55.637Z,59.46
2018-08-17T20:40:25.155Z,59.35
2018-08-17T20:42:54.324Z,59.65
2018-08-17T20:45:27.003Z,60.14
2018-08-17T20:47:56.593Z,60.66
2018-08-17T20:50:25.781Z,60.50
2018-08-17T20:52:59.173Z,59.91
2018-08-17T20:55:28.421Z,60.37
2018-08-17T20:57:58.459Z,60.54
2018-08-17T21:00:29.717Z,60.09
2018-08-17T21:02:58.926Z,59.99
2018-08-17T21:05:28.297Z,60.81
2018-08-17T21:07:57.418Z,61.09
2018-08-17T21:10:26.646Z,61.82
2018-08-17T21:12:56.016Z,61.93
2018-08-17T21:15:25.418Z,61.99
2018-08-17T21:17:54.677Z,62.14
2018-08-17T21:20:24.822Z,62.44
2018-08-17T21:22:54.402Z,63.20
2018-08-17T21:25:23.601Z,68.52
2018-08-17T21:27:53.334Z,80.46
2018-08-17T21:30:22.565Z,88.92
2018-08-17T21:32:52.186Z,96.46
2018-08-17T21:35:21.586Z,100.00
2018-08-17T21:37:50.907Z,100.00
2018-08-17T21:40:34.470Z,100.00
2018-08-17T21:43:03.603Z,100.00
2018-08-17T21:45:32.765Z,100.00
2018-08-17T21:48:02.514Z,100.00
2018-08-17T21:50:31.759Z,100.00
2018-08-17T21:53:00.946Z,100.00
2018-08-17T21:55:30.145Z,100.00
2018-08-17T21:57:59.293Z,100.00
2018-08-17T22:00:32.981Z,100.00
2018-08-17T22:03:03.622Z,100.00
2018-08-17T22:05:34.233Z,100.00
2018-08-17T22:08:03.408Z,100.00
2018-08-17T22:10:32.766Z,100.00
2018-08-17T22:13:02.074Z,100.00
2018-08-17T22:15:31.849Z,100.00
2018-08-17T22:18:01.148Z,100.00
2018-08-17T22:20:30.282Z,100.00
2018-08-17T22:22:59.701Z,100.00
2018-08-17T22:25:28.832Z,100.00
2018-08-17T22:27:57.995Z,100.00
2018-08-17T22:30:27.505Z,100.00
2018-08-17T22:32:56.702Z,100.00
2018-08-17T22:35:25.899Z,100.00
2018-08-17T22:37:55.029Z,100.00
2018-08-17T22:40:24.185Z,100.00
2018-08-17T22:42:53.313Z,100.00
2018-08-17T22:45:22.459Z,100.00
2018-08-17T22:47:51.674Z,100.00
2018-08-17T22:50:20.840Z,100.00
2018-08-17T22:52:50.057Z,100.00
2018-08-17T22:55:19.197Z,100.00
2018-08-17T22:57:48.384Z,100.00
2018-08-17T23:00:22.789Z,100.00
2018-08-17T23:02:53.483Z,100.00
2018-08-17T23:05:24.407Z,100.00
2018-08-17T23:07:54.196Z,100.00
2018-08-17T23:10:24.429Z,100.00
2018-08-17T23:12:54.411Z,100.00
2018-08-17T23:15:23.614Z,100.00
2018-08-17T23:17:55.006Z,100.00
2018-08-17T23:20:29.562Z,100.00
2018-08-17T23:23:00.182Z,100.00
2018-08-17T23:25:30.102Z,100.00
2018-08-17T23:27:59.398Z,100.00
2018-08-17T23:30:29.187Z,100.00
2018-08-17T23:32:58.743Z,100.00
2018-08-17T23:35:27.869Z,100.00
2018-08-17T23:37:57.086Z,100.00
2018-08-17T23:40:26.262Z,100.00
2018-08-17T23:42:55.402Z,100.00
2018-08-17T23:45:25.336Z,100.00
2018-08-17T23:47:54.488Z,100.00
2018-08-17T23:50:23.609Z,100.00
2018-08-17T23:52:52.760Z,100.00
2018-08-17T23:55:21.984Z,100.00
2018-08-17T23:57:51.112Z,100.00
